sensor_id;sensor_type;location;lat;lon;timestamp;P1;durP1;ratioP1;P2;durP2;ratioP2
59388;SDS011;51830;45.202;19.720;2023-04-24T00:00:56;15.32;;;4.40;;
59388;SDS011;51830;45.202;19.720;2023-04-24T00:03:23;14.43;;;4.05;;
59388;SDS011;51830;45.202;19.720;2023-04-24T00:05:50;14.15;;;3.97;;
59388;SDS011;51830;45.202;19.720;2023-04-24T00:08:17;14.70;;;4.15;;
59388;SDS011;51830;45.202;19.720;2023-04-24T00:10:43;14.73;;;4.07;;
59388;SDS011;51830;45.202;19.720;2023-04-24T00:13:10;13.88;;;4.05;;
59388;SDS011;51830;45.202;19.720;2023-04-24T00:15:36;16.00;;;3.78;;
59388;SDS011;51830;45.202;19.720;2023-04-24T00:18:02;13.25;;;3.83;;
59388;SDS011;51830;45.202;19.720;2023-04-24T00:20:29;14.40;;;3.95;;
59388;SDS011;51830;45.202;19.720;2023-04-24T00:22:57;15.82;;;3.95;;
59388;SDS011;51830;45.202;19.720;2023-04-24T00:25:23;13.18;;;3.60;;
59388;SDS011;51830;45.202;19.720;2023-04-24T00:27:50;13.13;;;3.63;;
59388;SDS011;51830;45.202;19.720;2023-04-24T00:30:16;14.63;;;3.65;;
59388;SDS011;51830;45.202;19.720;2023-04-24T00:32:42;14.75;;;4.28;;
59388;SDS011;51830;45.202;19.720;2023-04-24T00:35:08;15.90;;;4.13;;
59388;SDS011;51830;45.202;19.720;2023-04-24T00:37:35;14.60;;;4.30;;
59388;SDS011;51830;45.202;19.720;2023-04-24T00:40:01;14.27;;;3.97;;
59388;SDS011;51830;45.202;19.720;2023-04-24T00:42:28;14.45;;;4.30;;
59388;SDS011;51830;45.202;19.720;2023-04-24T00:44:55;12.98;;;3.85;;
59388;SDS011;51830;45.202;19.720;2023-04-24T00:47:22;13.23;;;3.53;;
59388;SDS011;51830;45.202;19.720;2023-04-24T00:49:48;15.45;;;4.32;;
59388;SDS011;51830;45.202;19.720;2023-04-24T00:52:14;15.85;;;4.70;;
59388;SDS011;51830;45.202;19.720;2023-04-24T00:54:45;14.60;;;3.90;;
59388;SDS011;51830;45.202;19.720;2023-04-24T00:57:12;16.05;;;3.95;;
59388;SDS011;51830;45.202;19.720;2023-04-24T00:59:41;13.52;;;4.15;;
59388;SDS011;51830;45.202;19.720;2023-04-24T01:02:07;14.77;;;3.85;;
59388;SDS011;51830;45.202;19.720;2023-04-24T01:04:34;16.08;;;3.88;;
59388;SDS011;51830;45.202;19.720;2023-04-24T01:07:01;13.57;;;3.85;;
59388;SDS011;51830;45.202;19.720;2023-04-24T01:09:28;14.00;;;3.65;;
59388;SDS011;51830;45.202;19.720;2023-04-24T01:11:54;13.70;;;3.80;;
59388;SDS011;51830;45.202;19.720;2023-04-24T01:14:21;15.73;;;4.45;;
59388;SDS011;51830;45.202;19.720;2023-04-24T01:16:48;13.27;;;3.90;;
59388;SDS011;51830;45.202;19.720;2023-04-24T01:19:14;13.43;;;3.75;;
59388;SDS011;51830;45.202;19.720;2023-04-24T01:21:41;13.23;;;3.80;;
59388;SDS011;51830;45.202;19.720;2023-04-24T01:24:08;13.93;;;3.50;;
59388;SDS011;51830;45.202;19.720;2023-04-24T01:26:34;13.73;;;3.90;;
59388;SDS011;51830;45.202;19.720;2023-04-24T01:29:01;13.60;;;3.95;;
59388;SDS011;51830;45.202;19.720;2023-04-24T01:31:27;13.40;;;3.90;;
59388;SDS011;51830;45.202;19.720;2023-04-24T01:33:54;16.20;;;4.25;;
59388;SDS011;51830;45.202;19.720;2023-04-24T01:36:21;13.75;;;3.60;;
59388;SDS011;51830;45.202;19.720;2023-04-24T01:38:48;14.98;;;3.92;;
59388;SDS011;51830;45.202;19.720;2023-04-24T01:41:14;15.82;;;3.85;;
59388;SDS011;51830;45.202;19.720;2023-04-24T01:43:40;13.27;;;3.53;;
59388;SDS011;51830;45.202;19.720;2023-04-24T01:46:06;14.30;;;4.10;;
59388;SDS011;51830;45.202;19.720;2023-04-24T01:48:33;15.23;;;3.95;;
59388;SDS011;51830;45.202;19.720;2023-04-24T01:50:59;12.40;;;3.53;;
59388;SDS011;51830;45.202;19.720;2023-04-24T01:53:26;12.57;;;3.80;;
59388;SDS011;51830;45.202;19.720;2023-04-24T01:55:52;14.27;;;3.90;;
59388;SDS011;51830;45.202;19.720;2023-04-24T01:58:18;15.05;;;3.80;;
59388;SDS011;51830;45.202;19.720;2023-04-24T02:00:44;14.30;;;3.70;;
59388;SDS011;51830;45.202;19.720;2023-04-24T02:03:11;14.63;;;4.22;;
59388;SDS011;51830;45.202;19.720;2023-04-24T02:05:37;17.65;;;3.70;;
59388;SDS011;51830;45.202;19.720;2023-04-24T02:08:03;13.60;;;3.58;;
59388;SDS011;51830;45.202;19.720;2023-04-24T02:10:30;21.42;;;4.30;;
59388;SDS011;51830;45.202;19.720;2023-04-24T02:12:56;16.30;;;4.70;;
59388;SDS011;51830;45.202;19.720;2023-04-24T02:15:24;16.15;;;4.38;;
59388;SDS011;51830;45.202;19.720;2023-04-24T02:17:51;16.38;;;4.32;;
59388;SDS011;51830;45.202;19.720;2023-04-24T02:20:17;15.63;;;4.03;;
59388;SDS011;51830;45.202;19.720;2023-04-24T02:22:44;14.30;;;3.50;;
59388;SDS011;51830;45.202;19.720;2023-04-24T02:25:10;13.02;;;3.38;;
59388;SDS011;51830;45.202;19.720;2023-04-24T02:27:36;18.77;;;4.90;;
59388;SDS011;51830;45.202;19.720;2023-04-24T02:30:02;17.77;;;5.07;;
59388;SDS011;51830;45.202;19.720;2023-04-24T02:32:29;26.27;;;5.00;;
59388;SDS011;51830;45.202;19.720;2023-04-24T02:34:56;17.98;;;4.72;;
59388;SDS011;51830;45.202;19.720;2023-04-24T02:37:22;16.30;;;4.68;;
59388;SDS011;51830;45.202;19.720;2023-04-24T02:39:48;16.77;;;4.15;;
59388;SDS011;51830;45.202;19.720;2023-04-24T02:42:15;13.88;;;3.80;;
59388;SDS011;51830;45.202;19.720;2023-04-24T02:44:41;13.93;;;3.70;;
59388;SDS011;51830;45.202;19.720;2023-04-24T02:47:07;12.40;;;3.45;;
59388;SDS011;51830;45.202;19.720;2023-04-24T02:49:34;14.50;;;3.78;;
59388;SDS011;51830;45.202;19.720;2023-04-24T02:52:00;13.63;;;3.70;;
59388;SDS011;51830;45.202;19.720;2023-04-24T02:54:26;13.45;;;3.33;;
59388;SDS011;51830;45.202;19.720;2023-04-24T02:56:53;14.63;;;3.67;;
59388;SDS011;51830;45.202;19.720;2023-04-24T02:59:19;17.45;;;3.78;;
59388;SDS011;51830;45.202;19.720;2023-04-24T03:01:46;14.52;;;3.72;;
59388;SDS011;51830;45.202;19.720;2023-04-24T03:04:12;18.88;;;3.95;;
59388;SDS011;51830;45.202;19.720;2023-04-24T03:06:38;15.25;;;3.80;;
59388;SDS011;51830;45.202;19.720;2023-04-24T03:09:05;15.95;;;3.95;;
59388;SDS011;51830;45.202;19.720;2023-04-24T03:11:31;13.80;;;3.83;;
59388;SDS011;51830;45.202;19.720;2023-04-24T03:13:57;14.90;;;4.15;;
59388;SDS011;51830;45.202;19.720;2023-04-24T03:16:24;16.60;;;3.72;;
59388;SDS011;51830;45.202;19.720;2023-04-24T03:18:50;15.32;;;4.18;;
59388;SDS011;51830;45.202;19.720;2023-04-24T03:21:17;14.38;;;3.85;;
59388;SDS011;51830;45.202;19.720;2023-04-24T03:23:43;16.25;;;4.57;;
59388;SDS011;51830;45.202;19.720;2023-04-24T03:26:09;18.73;;;4.78;;
59388;SDS011;51830;45.202;19.720;2023-04-24T03:28:36;20.33;;;4.75;;
59388;SDS011;51830;45.202;19.720;2023-04-24T03:31:02;15.50;;;4.85;;
59388;SDS011;51830;45.202;19.720;2023-04-24T03:33:29;18.88;;;5.40;;
59388;SDS011;51830;45.202;19.720;2023-04-24T03:35:55;18.55;;;5.60;;
59388;SDS011;51830;45.202;19.720;2023-04-24T03:38:21;20.38;;;7.07;;
59388;SDS011;51830;45.202;19.720;2023-04-24T03:40:47;18.70;;;6.78;;
59388;SDS011;51830;45.202;19.720;2023-04-24T03:43:14;18.83;;;5.95;;
59388;SDS011;51830;45.202;19.720;2023-04-24T03:45:40;16.45;;;4.70;;
59388;SDS011;51830;45.202;19.720;2023-04-24T03:48:06;16.77;;;4.93;;
59388;SDS011;51830;45.202;19.720;2023-04-24T03:50:33;16.08;;;5.25;;
59388;SDS011;51830;45.202;19.720;2023-04-24T03:52:59;16.67;;;6.18;;
59388;SDS011;51830;45.202;19.720;2023-04-24T03:55:25;18.65;;;5.45;;
59388;SDS011;51830;45.202;19.720;2023-04-24T03:57:52;19.48;;;6.25;;
59388;SDS011;51830;45.202;19.720;2023-04-24T04:00:18;15.90;;;4.93;;
59388;SDS011;51830;45.202;19.720;2023-04-24T04:02:44;15.32;;;5.53;;
59388;SDS011;51830;45.202;19.720;2023-04-24T04:05:11;18.88;;;6.07;;
59388;SDS011;51830;45.202;19.720;2023-04-24T04:07:37;16.45;;;5.45;;
59388;SDS011;51830;45.202;19.720;2023-04-24T04:10:03;15.35;;;5.10;;
59388;SDS011;51830;45.202;19.720;2023-04-24T04:12:30;18.55;;;5.53;;
59388;SDS011;51830;45.202;19.720;2023-04-24T04:14:56;14.13;;;4.65;;
59388;SDS011;51830;45.202;19.720;2023-04-24T04:17:22;19.15;;;5.53;;
59388;SDS011;51830;45.202;19.720;2023-04-24T04:19:48;23.25;;;6.03;;
59388;SDS011;51830;45.202;19.720;2023-04-24T04:22:15;19.90;;;5.93;;
59388;SDS011;51830;45.202;19.720;2023-04-24T04:24:42;17.98;;;5.90;;
59388;SDS011;51830;45.202;19.720;2023-04-24T04:27:08;15.50;;;4.93;;
59388;SDS011;51830;45.202;19.720;2023-04-24T04:29:36;19.65;;;5.68;;
59388;SDS011;51830;45.202;19.720;2023-04-24T04:32:02;15.75;;;5.40;;
59388;SDS011;51830;45.202;19.720;2023-04-24T04:34:29;17.52;;;4.38;;
59388;SDS011;51830;45.202;19.720;2023-04-24T04:36:56;16.13;;;5.20;;
59388;SDS011;51830;45.202;19.720;2023-04-24T04:39:26;16.10;;;5.40;;
59388;SDS011;51830;45.202;19.720;2023-04-24T04:41:53;16.58;;;5.43;;
59388;SDS011;51830;45.202;19.720;2023-04-24T04:44:19;17.35;;;5.65;;
59388;SDS011;51830;45.202;19.720;2023-04-24T04:46:46;15.88;;;5.00;;
59388;SDS011;51830;45.202;19.720;2023-04-24T04:49:12;15.35;;;5.38;;
59388;SDS011;51830;45.202;19.720;2023-04-24T04:51:42;16.50;;;5.43;;
59388;SDS011;51830;45.202;19.720;2023-04-24T04:54:08;17.75;;;5.40;;
59388;SDS011;51830;45.202;19.720;2023-04-24T04:56:34;16.17;;;5.65;;
59388;SDS011;51830;45.202;19.720;2023-04-24T04:59:00;14.93;;;5.43;;
59388;SDS011;51830;45.202;19.720;2023-04-24T05:01:27;15.73;;;4.65;;
59388;SDS011;51830;45.202;19.720;2023-04-24T05:03:53;15.77;;;5.35;;
59388;SDS011;51830;45.202;19.720;2023-04-24T05:06:19;16.38;;;5.68;;
59388;SDS011;51830;45.202;19.720;2023-04-24T05:08:46;16.70;;;5.63;;
59388;SDS011;51830;45.202;19.720;2023-04-24T05:11:14;16.10;;;5.78;;
59388;SDS011;51830;45.202;19.720;2023-04-24T05:13:40;17.92;;;5.88;;
59388;SDS011;51830;45.202;19.720;2023-04-24T05:16:06;16.42;;;5.72;;
59388;SDS011;51830;45.202;19.720;2023-04-24T05:18:33;18.63;;;5.82;;
59388;SDS011;51830;45.202;19.720;2023-04-24T05:20:59;17.83;;;6.05;;
59388;SDS011;51830;45.202;19.720;2023-04-24T05:23:26;16.88;;;5.90;;
59388;SDS011;51830;45.202;19.720;2023-04-24T05:25:52;18.98;;;5.57;;
59388;SDS011;51830;45.202;19.720;2023-04-24T05:28:19;16.02;;;5.22;;
59388;SDS011;51830;45.202;19.720;2023-04-24T05:30:46;16.52;;;5.53;;
59388;SDS011;51830;45.202;19.720;2023-04-24T05:33:12;17.42;;;5.75;;
59388;SDS011;51830;45.202;19.720;2023-04-24T05:35:39;18.55;;;5.55;;
59388;SDS011;51830;45.202;19.720;2023-04-24T05:38:11;15.52;;;5.13;;
59388;SDS011;51830;45.202;19.720;2023-04-24T05:40:38;16.92;;;5.80;;
59388;SDS011;51830;45.202;19.720;2023-04-24T05:43:04;16.73;;;5.95;;
59388;SDS011;51830;45.202;19.720;2023-04-24T05:45:31;16.35;;;5.80;;
59388;SDS011;51830;45.202;19.720;2023-04-24T05:47:57;18.02;;;5.65;;
59388;SDS011;51830;45.202;19.720;2023-04-24T05:50:23;20.83;;;5.38;;
59388;SDS011;51830;45.202;19.720;2023-04-24T05:52:49;31.02;;;6.88;;
59388;SDS011;51830;45.202;19.720;2023-04-24T05:55:16;21.83;;;7.15;;
59388;SDS011;51830;45.202;19.720;2023-04-24T05:57:43;26.38;;;7.28;;
59388;SDS011;51830;45.202;19.720;2023-04-24T06:00:10;20.45;;;6.75;;
59388;SDS011;51830;45.202;19.720;2023-04-24T06:02:37;19.60;;;6.40;;
59388;SDS011;51830;45.202;19.720;2023-04-24T06:05:04;17.92;;;6.60;;
59388;SDS011;51830;45.202;19.720;2023-04-24T06:07:32;18.13;;;5.90;;
59388;SDS011;51830;45.202;19.720;2023-04-24T06:09:58;18.75;;;6.68;;
59388;SDS011;51830;45.202;19.720;2023-04-24T06:12:25;20.67;;;6.32;;
59388;SDS011;51830;45.202;19.720;2023-04-24T06:14:51;23.23;;;6.93;;
59388;SDS011;51830;45.202;19.720;2023-04-24T06:17:17;19.55;;;6.70;;
59388;SDS011;51830;45.202;19.720;2023-04-24T06:19:44;18.98;;;6.43;;
59388;SDS011;51830;45.202;19.720;2023-04-24T06:22:10;18.10;;;7.10;;
59388;SDS011;51830;45.202;19.720;2023-04-24T06:24:39;17.00;;;6.53;;
59388;SDS011;51830;45.202;19.720;2023-04-24T06:27:06;22.70;;;7.13;;
59388;SDS011;51830;45.202;19.720;2023-04-24T06:29:33;19.08;;;6.82;;
59388;SDS011;51830;45.202;19.720;2023-04-24T06:31:59;26.38;;;9.00;;
59388;SDS011;51830;45.202;19.720;2023-04-24T06:34:25;29.27;;;10.80;;
59388;SDS011;51830;45.202;19.720;2023-04-24T06:36:52;18.65;;;6.90;;
59388;SDS011;51830;45.202;19.720;2023-04-24T06:39:18;21.77;;;8.25;;
59388;SDS011;51830;45.202;19.720;2023-04-24T06:41:44;25.92;;;7.97;;
59388;SDS011;51830;45.202;19.720;2023-04-24T06:44:10;22.48;;;8.68;;
59388;SDS011;51830;45.202;19.720;2023-04-24T06:46:37;21.85;;;8.45;;
59388;SDS011;51830;45.202;19.720;2023-04-24T06:49:03;21.27;;;6.97;;
59388;SDS011;51830;45.202;19.720;2023-04-24T06:51:31;18.98;;;7.32;;
59388;SDS011;51830;45.202;19.720;2023-04-24T06:53:58;18.42;;;6.15;;
59388;SDS011;51830;45.202;19.720;2023-04-24T06:56:26;19.02;;;7.13;;
59388;SDS011;51830;45.202;19.720;2023-04-24T06:58:55;19.98;;;6.03;;
59388;SDS011;51830;45.202;19.720;2023-04-24T07:01:21;18.48;;;6.03;;
59388;SDS011;51830;45.202;19.720;2023-04-24T07:03:48;16.30;;;5.28;;
59388;SDS011;51830;45.202;19.720;2023-04-24T07:06:14;17.70;;;6.30;;
59388;SDS011;51830;45.202;19.720;2023-04-24T07:08:43;19.15;;;6.75;;
59388;SDS011;51830;45.202;19.720;2023-04-24T07:11:10;15.98;;;5.80;;
59388;SDS011;51830;45.202;19.720;2023-04-24T07:13:36;16.17;;;5.78;;
59388;SDS011;51830;45.202;19.720;2023-04-24T07:16:07;17.60;;;5.90;;
59388;SDS011;51830;45.202;19.720;2023-04-24T07:18:33;16.20;;;5.78;;
59388;SDS011;51830;45.202;19.720;2023-04-24T07:21:00;19.50;;;6.35;;
59388;SDS011;51830;45.202;19.720;2023-04-24T07:23:26;16.65;;;5.75;;
59388;SDS011;51830;45.202;19.720;2023-04-24T07:25:54;16.98;;;5.50;;
59388;SDS011;51830;45.202;19.720;2023-04-24T07:28:20;18.63;;;5.82;;
59388;SDS011;51830;45.202;19.720;2023-04-24T07:30:46;17.80;;;6.68;;
59388;SDS011;51830;45.202;19.720;2023-04-24T07:33:13;17.38;;;5.95;;
59388;SDS011;51830;45.202;19.720;2023-04-24T07:35:39;15.98;;;5.80;;
59388;SDS011;51830;45.202;19.720;2023-04-24T07:38:05;19.33;;;5.97;;
59388;SDS011;51830;45.202;19.720;2023-04-24T07:40:32;18.95;;;6.25;;
59388;SDS011;51830;45.202;19.720;2023-04-24T07:42:58;18.27;;;6.88;;
59388;SDS011;51830;45.202;19.720;2023-04-24T07:45:25;21.02;;;6.70;;
59388;SDS011;51830;45.202;19.720;2023-04-24T07:47:53;16.92;;;6.60;;
59388;SDS011;51830;45.202;19.720;2023-04-24T07:50:19;18.75;;;6.88;;
59388;SDS011;51830;45.202;19.720;2023-04-24T07:52:46;17.95;;;6.72;;
59388;SDS011;51830;45.202;19.720;2023-04-24T07:55:12;17.58;;;6.22;;
59388;SDS011;51830;45.202;19.720;2023-04-24T07:57:39;18.08;;;6.38;;
59388;SDS011;51830;45.202;19.720;2023-04-24T08:00:06;16.90;;;5.75;;
59388;SDS011;51830;45.202;19.720;2023-04-24T08:02:33;18.38;;;5.78;;
59388;SDS011;51830;45.202;19.720;2023-04-24T08:04:59;17.67;;;5.22;;
59388;SDS011;51830;45.202;19.720;2023-04-24T08:07:25;15.43;;;4.82;;
59388;SDS011;51830;45.202;19.720;2023-04-24T08:09:51;18.15;;;6.00;;
59388;SDS011;51830;45.202;19.720;2023-04-24T08:12:17;22.10;;;6.72;;
59388;SDS011;51830;45.202;19.720;2023-04-24T08:14:44;15.55;;;4.90;;
59388;SDS011;51830;45.202;19.720;2023-04-24T08:17:10;14.98;;;4.55;;
59388;SDS011;51830;45.202;19.720;2023-04-24T08:19:36;16.13;;;5.07;;
59388;SDS011;51830;45.202;19.720;2023-04-24T08:22:02;15.38;;;4.72;;
59388;SDS011;51830;45.202;19.720;2023-04-24T08:24:29;16.95;;;5.60;;
59388;SDS011;51830;45.202;19.720;2023-04-24T08:26:55;24.95;;;10.23;;
59388;SDS011;51830;45.202;19.720;2023-04-24T08:29:22;17.88;;;5.93;;
59388;SDS011;51830;45.202;19.720;2023-04-24T08:31:49;17.80;;;5.32;;
59388;SDS011;51830;45.202;19.720;2023-04-24T08:34:15;15.75;;;5.00;;
59388;SDS011;51830;45.202;19.720;2023-04-24T08:36:41;15.10;;;4.55;;
59388;SDS011;51830;45.202;19.720;2023-04-24T08:39:08;14.30;;;4.25;;
59388;SDS011;51830;45.202;19.720;2023-04-24T08:41:34;14.18;;;4.40;;
59388;SDS011;51830;45.202;19.720;2023-04-24T08:44:01;14.63;;;4.07;;
59388;SDS011;51830;45.202;19.720;2023-04-24T08:46:28;14.23;;;4.43;;
59388;SDS011;51830;45.202;19.720;2023-04-24T08:48:55;16.48;;;4.20;;
59388;SDS011;51830;45.202;19.720;2023-04-24T08:51:22;14.88;;;4.10;;
59388;SDS011;51830;45.202;19.720;2023-04-24T08:53:48;15.07;;;4.40;;
59388;SDS011;51830;45.202;19.720;2023-04-24T08:56:15;14.38;;;3.97;;
59388;SDS011;51830;45.202;19.720;2023-04-24T08:58:42;15.50;;;4.18;;
59388;SDS011;51830;45.202;19.720;2023-04-24T09:01:09;14.82;;;4.55;;
59388;SDS011;51830;45.202;19.720;2023-04-24T09:03:35;15.30;;;4.50;;
59388;SDS011;51830;45.202;19.720;2023-04-24T09:06:01;14.55;;;4.10;;
59388;SDS011;51830;45.202;19.720;2023-04-24T09:08:28;13.88;;;4.35;;
59388;SDS011;51830;45.202;19.720;2023-04-24T09:10:55;14.90;;;5.15;;
59388;SDS011;51830;45.202;19.720;2023-04-24T09:13:23;14.57;;;4.72;;
59388;SDS011;51830;45.202;19.720;2023-04-24T09:15:50;14.95;;;4.72;;
59388;SDS011;51830;45.202;19.720;2023-04-24T09:18:16;15.85;;;5.30;;
59388;SDS011;51830;45.202;19.720;2023-04-24T09:21:16;16.80;;;5.47;;
59388;SDS011;51830;45.202;19.720;2023-04-24T09:23:35;20.50;;;6.90;;
59388;SDS011;51830;45.202;19.720;2023-04-24T09:26:02;18.60;;;6.55;;
59388;SDS011;51830;45.202;19.720;2023-04-24T09:28:32;23.00;;;6.53;;
59388;SDS011;51830;45.202;19.720;2023-04-24T09:33:29;15.85;;;5.28;;
59388;SDS011;51830;45.202;19.720;2023-04-24T09:35:55;16.48;;;5.68;;
59388;SDS011;51830;45.202;19.720;2023-04-24T09:38:32;18.10;;;6.45;;
59388;SDS011;51830;45.202;19.720;2023-04-24T09:40:59;18.50;;;5.75;;
59388;SDS011;51830;45.202;19.720;2023-04-24T09:43:28;20.33;;;6.35;;
59388;SDS011;51830;45.202;19.720;2023-04-24T09:45:57;19.38;;;7.50;;
59388;SDS011;51830;45.202;19.720;2023-04-24T09:48:32;22.63;;;7.93;;
59388;SDS011;51830;45.202;19.720;2023-04-24T09:51:00;21.02;;;7.85;;
59388;SDS011;51830;45.202;19.720;2023-04-24T09:53:27;19.15;;;6.47;;
59388;SDS011;51830;45.202;19.720;2023-04-24T09:55:53;16.40;;;5.72;;
59388;SDS011;51830;45.202;19.720;2023-04-24T09:58:25;19.15;;;6.20;;
59388;SDS011;51830;45.202;19.720;2023-04-24T10:00:56;15.95;;;5.10;;
59388;SDS011;51830;45.202;19.720;2023-04-24T10:03:25;14.55;;;4.50;;
59388;SDS011;51830;45.202;19.720;2023-04-24T10:05:54;16.95;;;4.80;;
59388;SDS011;51830;45.202;19.720;2023-04-24T10:08:24;14.52;;;4.70;;
59388;SDS011;51830;45.202;19.720;2023-04-24T10:10:51;18.10;;;4.63;;
59388;SDS011;51830;45.202;19.720;2023-04-24T10:13:18;16.95;;;4.65;;
59388;SDS011;51830;45.202;19.720;2023-04-24T10:15:44;14.75;;;4.55;;
59388;SDS011;51830;45.202;19.720;2023-04-24T10:18:11;16.60;;;5.90;;
59388;SDS011;51830;45.202;19.720;2023-04-24T10:20:38;19.55;;;6.18;;
59388;SDS011;51830;45.202;19.720;2023-04-24T10:23:05;16.25;;;5.28;;
59388;SDS011;51830;45.202;19.720;2023-04-24T10:25:33;17.35;;;5.50;;
59388;SDS011;51830;45.202;19.720;2023-04-24T10:28:00;16.85;;;5.60;;
59388;SDS011;51830;45.202;19.720;2023-04-24T10:30:27;16.45;;;5.25;;
59388;SDS011;51830;45.202;19.720;2023-04-24T10:32:54;14.98;;;4.90;;
59388;SDS011;51830;45.202;19.720;2023-04-24T10:35:22;14.77;;;3.88;;
59388;SDS011;51830;45.202;19.720;2023-04-24T10:40:18;13.88;;;4.28;;
59388;SDS011;51830;45.202;19.720;2023-04-24T10:42:48;14.40;;;4.50;;
59388;SDS011;51830;45.202;19.720;2023-04-24T10:45:19;15.18;;;4.53;;
59388;SDS011;51830;45.202;19.720;2023-04-24T10:47:57;16.67;;;4.35;;
59388;SDS011;51830;45.202;19.720;2023-04-24T10:50:24;14.38;;;4.43;;
59388;SDS011;51830;45.202;19.720;2023-04-24T10:52:51;12.95;;;4.22;;
59388;SDS011;51830;45.202;19.720;2023-04-24T10:58:04;15.63;;;4.82;;
59388;SDS011;51830;45.202;19.720;2023-04-24T11:00:30;15.68;;;4.78;;
59388;SDS011;51830;45.202;19.720;2023-04-24T11:02:59;14.93;;;4.60;;
59388;SDS011;51830;45.202;19.720;2023-04-24T11:08:21;15.38;;;4.80;;
59388;SDS011;51830;45.202;19.720;2023-04-24T11:10:54;14.05;;;4.55;;
59388;SDS011;51830;45.202;19.720;2023-04-24T11:13:22;14.10;;;4.45;;
59388;SDS011;51830;45.202;19.720;2023-04-24T11:18:39;14.82;;;5.00;;
59388;SDS011;51830;45.202;19.720;2023-04-24T11:21:11;17.45;;;5.03;;
59388;SDS011;51830;45.202;19.720;2023-04-24T11:23:37;15.32;;;4.82;;
59388;SDS011;51830;45.202;19.720;2023-04-24T11:26:10;24.20;;;7.80;;
59388;SDS011;51830;45.202;19.720;2023-04-24T11:28:37;17.83;;;5.28;;
59388;SDS011;51830;45.202;19.720;2023-04-24T11:33:48;17.65;;;5.30;;
59388;SDS011;51830;45.202;19.720;2023-04-24T11:36:14;24.67;;;4.57;;
59388;SDS011;51830;45.202;19.720;2023-04-24T11:38:40;16.35;;;5.10;;
59388;SDS011;51830;45.202;19.720;2023-04-24T11:41:06;14.90;;;4.72;;
59388;SDS011;51830;45.202;19.720;2023-04-24T11:43:33;15.82;;;4.63;;
59388;SDS011;51830;45.202;19.720;2023-04-24T11:45:59;14.07;;;4.53;;
59388;SDS011;51830;45.202;19.720;2023-04-24T11:48:26;18.52;;;4.53;;
59388;SDS011;51830;45.202;19.720;2023-04-24T11:50:52;19.30;;;4.72;;
59388;SDS011;51830;45.202;19.720;2023-04-24T11:53:19;15.40;;;4.20;;
59388;SDS011;51830;45.202;19.720;2023-04-24T11:55:46;15.07;;;4.20;;
59388;SDS011;51830;45.202;19.720;2023-04-24T11:58:12;13.80;;;4.00;;
59388;SDS011;51830;45.202;19.720;2023-04-24T12:00:38;19.38;;;3.97;;
59388;SDS011;51830;45.202;19.720;2023-04-24T12:03:08;15.27;;;4.47;;
59388;SDS011;51830;45.202;19.720;2023-04-24T12:05:35;15.32;;;4.43;;
59388;SDS011;51830;45.202;19.720;2023-04-24T12:08:01;17.27;;;4.75;;
59388;SDS011;51830;45.202;19.720;2023-04-24T12:10:28;13.50;;;4.10;;
59388;SDS011;51830;45.202;19.720;2023-04-24T12:12:55;12.48;;;3.42;;
59388;SDS011;51830;45.202;19.720;2023-04-24T12:15:23;14.25;;;3.50;;
59388;SDS011;51830;45.202;19.720;2023-04-24T12:17:52;13.02;;;3.50;;
59388;SDS011;51830;45.202;19.720;2023-04-24T12:20:23;16.52;;;3.65;;
59388;SDS011;51830;45.202;19.720;2023-04-24T12:22:50;13.50;;;3.70;;
59388;SDS011;51830;45.202;19.720;2023-04-24T12:25:19;12.60;;;3.35;;
59388;SDS011;51830;45.202;19.720;2023-04-24T12:27:46;14.13;;;4.18;;
59388;SDS011;51830;45.202;19.720;2023-04-24T12:30:13;15.13;;;4.70;;
59388;SDS011;51830;45.202;19.720;2023-04-24T12:32:43;18.05;;;4.38;;
59388;SDS011;51830;45.202;19.720;2023-04-24T12:35:09;15.75;;;4.55;;
59388;SDS011;51830;45.202;19.720;2023-04-24T12:37:35;15.02;;;4.57;;
59388;SDS011;51830;45.202;19.720;2023-04-24T12:40:09;16.00;;;4.43;;
59388;SDS011;51830;45.202;19.720;2023-04-24T12:42:36;15.93;;;4.38;;
59388;SDS011;51830;45.202;19.720;2023-04-24T12:45:03;13.95;;;4.18;;
59388;SDS011;51830;45.202;19.720;2023-04-24T12:47:30;14.68;;;4.80;;
59388;SDS011;51830;45.202;19.720;2023-04-24T12:49:56;14.93;;;4.40;;
59388;SDS011;51830;45.202;19.720;2023-04-24T12:52:23;14.07;;;4.65;;
59388;SDS011;51830;45.202;19.720;2023-04-24T12:54:52;16.50;;;4.90;;
59388;SDS011;51830;45.202;19.720;2023-04-24T12:57:18;16.88;;;5.28;;
59388;SDS011;51830;45.202;19.720;2023-04-24T12:59:45;15.40;;;4.55;;
59388;SDS011;51830;45.202;19.720;2023-04-24T13:02:11;15.48;;;4.47;;
59388;SDS011;51830;45.202;19.720;2023-04-24T13:04:37;19.75;;;4.88;;
59388;SDS011;51830;45.202;19.720;2023-04-24T13:07:04;17.40;;;5.38;;
59388;SDS011;51830;45.202;19.720;2023-04-24T13:09:30;17.20;;;4.97;;
59388;SDS011;51830;45.202;19.720;2023-04-24T13:11:57;15.35;;;5.13;;
59388;SDS011;51830;45.202;19.720;2023-04-24T13:14:23;17.35;;;4.43;;
59388;SDS011;51830;45.202;19.720;2023-04-24T13:16:49;14.43;;;4.03;;
59388;SDS011;51830;45.202;19.720;2023-04-24T13:19:15;14.52;;;4.28;;
59388;SDS011;51830;45.202;19.720;2023-04-24T13:21:41;15.57;;;4.55;;
59388;SDS011;51830;45.202;19.720;2023-04-24T13:24:07;16.00;;;4.70;;
59388;SDS011;51830;45.202;19.720;2023-04-24T13:26:34;15.00;;;4.22;;
59388;SDS011;51830;45.202;19.720;2023-04-24T13:29:00;15.35;;;4.93;;
59388;SDS011;51830;45.202;19.720;2023-04-24T13:31:28;16.27;;;4.85;;
59388;SDS011;51830;45.202;19.720;2023-04-24T13:33:54;11.82;;;3.58;;
59388;SDS011;51830;45.202;19.720;2023-04-24T13:36:20;12.05;;;3.15;;
59388;SDS011;51830;45.202;19.720;2023-04-24T13:38:47;12.35;;;3.60;;
59388;SDS011;51830;45.202;19.720;2023-04-24T13:41:13;14.63;;;3.22;;
59388;SDS011;51830;45.202;19.720;2023-04-24T13:43:39;11.80;;;3.15;;
59388;SDS011;51830;45.202;19.720;2023-04-24T13:46:06;15.10;;;3.30;;
59388;SDS011;51830;45.202;19.720;2023-04-24T13:48:33;13.82;;;3.53;;
59388;SDS011;51830;45.202;19.720;2023-04-24T13:50:59;12.07;;;3.33;;
59388;SDS011;51830;45.202;19.720;2023-04-24T13:53:25;13.93;;;3.88;;
59388;SDS011;51830;45.202;19.720;2023-04-24T13:55:51;13.15;;;3.47;;
59388;SDS011;51830;45.202;19.720;2023-04-24T13:58:17;14.10;;;3.50;;
59388;SDS011;51830;45.202;19.720;2023-04-24T14:00:43;11.75;;;3.00;;
59388;SDS011;51830;45.202;19.720;2023-04-24T14:03:10;10.70;;;2.90;;
59388;SDS011;51830;45.202;19.720;2023-04-24T14:05:36;11.75;;;2.88;;
59388;SDS011;51830;45.202;19.720;2023-04-24T14:08:04;10.38;;;2.83;;
59388;SDS011;51830;45.202;19.720;2023-04-24T14:10:31;10.82;;;2.70;;
59388;SDS011;51830;45.202;19.720;2023-04-24T14:12:57;7.32;;;2.40;;
59388;SDS011;51830;45.202;19.720;2023-04-24T14:15:23;9.93;;;2.90;;
59388;SDS011;51830;45.202;19.720;2023-04-24T14:17:49;9.68;;;2.90;;
59388;SDS011;51830;45.202;19.720;2023-04-24T14:20:16;10.20;;;2.78;;
59388;SDS011;51830;45.202;19.720;2023-04-24T14:22:42;11.98;;;3.05;;
59388;SDS011;51830;45.202;19.720;2023-04-24T14:25:08;12.85;;;2.92;;
59388;SDS011;51830;45.202;19.720;2023-04-24T14:27:34;13.75;;;2.92;;
59388;SDS011;51830;45.202;19.720;2023-04-24T14:30:01;11.50;;;3.03;;
59388;SDS011;51830;45.202;19.720;2023-04-24T14:32:28;18.02;;;3.40;;
59388;SDS011;51830;45.202;19.720;2023-04-24T14:34:54;12.95;;;3.30;;